Time;durP1;ratioP1;P1;durP2;ratioP2;P2;SDS_P1;SDS_P2;PMS_P1;PMS_P2;Temp;Humidity;BMP_temperature;BMP_pressure;BME280_temperature;BME280_humidity;BME280_pressure;Samples;Min_cycle;Max_cycle;Signal;HPM_P1;HPM_P2
2021/08/17 00:01:08;;;;;;;;;;;16.30;90.60;;;;;;4331583;33;43326;-84
2021/08/17 00:03:35;;;;;;;;;;;16.20;90.50;;;;;;4346943;33;43913;-84
2021/08/17 00:06:04;;;;;;;;;;;16.30;90.60;;;;;;4346616;33;42918;-84
2021/08/17 00:08:34;;;;;;;;;;;16.20;90.60;;;;;;4332883;33;44294;-85
2021/08/17 00:11:06;;;;;;;;;;;16.20;90.60;;;;;;4333313;33;45768;-84
2021/08/17 00:13:42;;;;;;;;;;;16.20;90.60;;;;;;4347194;33;20041;-83
2021/08/17 00:16:17;;;;;;;;;;;16.20;90.60;;;;;;4333017;33;43696;-84
2021/08/17 00:18:50;;;;;;;;;;;16.20;90.60;;;;;;4333289;33;46224;-84
2021/08/17 00:21:23;;;;;;;;;;;16.10;90.60;;;;;;4333910;33;44809;-84
2021/08/17 00:23:56;;;;;;;;;;;16.10;90.60;;;;;;4332874;33;44585;-85
2021/08/17 00:26:23;;;;;;;;;;;16.10;90.60;;;;;;4332854;33;44642;-83
2021/08/17 00:28:56;;;;;;;;;;;16.10;90.60;;;;;;4333101;33;44535;-85
2021/08/17 00:31:26;;;;;;;;;;;16.10;90.70;;;;;;4333017;33;43905;-84
2021/08/17 00:33:59;;;;;;;;;;;16.10;90.70;;;;;;4332773;33;45220;-83
2021/08/17 00:36:31;;;;;;;;;;;16.00;90.70;;;;;;4345952;33;42741;-83
2021/08/17 00:39:04;;;;;;;;;;;16.10;90.70;;;;;;4333428;33;44617;-83
2021/08/17 00:41:42;;;;;;;;;;;16.10;90.70;;;;;;4332471;33;43473;-83
2021/08/17 00:44:25;;;;;;;;;;;16.00;90.70;;;;;;4347298;33;20028;-84
2021/08/17 00:46:55;;;;;;;;;;;16.00;90.70;;;;;;4332410;33;44223;-87
2021/08/17 00:49:35;;;;;;;;;;;16.00;90.70;;;;;;4332844;33;44878;-86
2021/08/17 00:52:03;;;;;;;;;;;15.90;90.70;;;;;;4333016;33;46298;-84
2021/08/17 00:54:36;;;;;;;;;;;15.90;90.80;;;;;;4332626;33;44255;-85
2021/08/17 00:57:09;;;;;;;;;;;15.90;90.80;;;;;;4332645;33;45325;-83
2021/08/17 00:59:47;;;;;;;;;;;15.90;90.80;;;;;;4345943;33;43720;-84
2021/08/17 01:02:17;;;;;;;;;;;15.80;90.80;;;;;;4332247;33;42805;-84
2021/08/17 01:04:54;;;;;;;;;;;15.80;90.80;;;;;;4345927;33;46040;-83
2021/08/17 01:07:27;;;;;;;;;;;15.80;90.90;;;;;;4332072;33;45674;-83
2021/08/17 01:10:03;;;;;;;;;;;15.80;90.90;;;;;;4345784;33;45386;-82
2021/08/17 01:12:42;;;;;;;;;;;15.80;90.90;;;;;;4333061;33;44023;-84
2021/08/17 01:15:19;;;;;;;;;;;15.80;90.90;;;;;;4345867;33;43097;-83
2021/08/17 01:17:49;;;;;;;;;;;15.80;90.90;;;;;;4332642;33;43120;-83
2021/08/17 01:20:22;;;;;;;;;;;15.80;91.20;;;;;;4332530;33;44798;-83
2021/08/17 01:23:01;;;;;;;;;;;15.80;90.80;;;;;;4345029;33;43482;-86
2021/08/17 01:25:33;;;;;;;;;;;15.80;90.90;;;;;;4345623;33;46127;-85
2021/08/17 01:28:00;;;;;;;;;;;15.80;90.90;;;;;;4332272;33;45489;-82
2021/08/17 01:30:33;;;;;;;;;;;15.70;90.90;;;;;;4331704;33;45794;-84
2021/08/17 01:33:09;;;;;;;;;;;15.70;90.90;;;;;;4331816;33;44574;-84
2021/08/17 01:35:39;;;;;;;;;;;15.70;91.00;;;;;;4332199;33;44137;-85
2021/08/17 01:38:14;;;;;;;;;;;15.70;91.00;;;;;;4344930;33;43579;-84
2021/08/17 01:40:47;;;;;;;;;;;15.70;91.40;;;;;;4331808;33;43315;-83
2021/08/17 01:43:17;;;;;;;;;;;15.70;91.00;;;;;;4332224;33;42434;-83
2021/08/17 01:45:58;;;;;;;;;;;15.70;91.10;;;;;;4344927;33;45495;-86
2021/08/17 01:48:31;;;;;;;;;;;15.60;91.10;;;;;;4332099;33;44565;-83
2021/08/17 01:51:02;;;;;;;;;;;15.60;91.20;;;;;;4345303;33;46052;-86
2021/08/17 01:53:32;;;;;;;;;;;15.60;91.20;;;;;;4331643;33;45206;-84
2021/08/17 01:56:16;;;;;;;;;;;15.60;91.20;;;;;;4344823;33;44277;-84
2021/08/17 01:58:46;;;;;;;;;;;15.50;91.20;;;;;;4345253;33;44727;-83
2021/08/17 02:01:13;;;;;;;;;;;15.60;91.20;;;;;;4331839;33;43603;-84
2021/08/17 02:03:47;;;;;;;;;;;15.60;91.20;;;;;;4331994;33;44713;-84
2021/08/17 02:06:20;;;;;;;;;;;15.50;91.20;;;;;;4331903;33;45008;-85
2021/08/17 02:08:47;;;;;;;;;;;15.50;91.20;;;;;;4332055;33;44063;-84
2021/08/17 02:11:22;;;;;;;;;;;15.50;91.30;;;;;;4345176;33;45797;-85
2021/08/17 02:13:50;;;;;;;;;;;15.50;91.30;;;;;;4331799;33;43474;-85
2021/08/17 02:16:25;;;;;;;;;;;15.60;91.30;;;;;;4333086;33;19997;-85
2021/08/17 02:19:01;;;;;;;;;;;15.50;91.30;;;;;;4332027;33;43265;-83
2021/08/17 02:21:37;;;;;;;;;;;15.50;91.40;;;;;;4331786;33;45987;-84
2021/08/17 02:24:10;;;;;;;;;;;15.50;91.40;;;;;;4331506;33;44134;-83
2021/08/17 02:26:46;;;;;;;;;;;15.50;91.40;;;;;;4345080;33;42271;-84
2021/08/17 02:29:18;;;;;;;;;;;15.50;91.50;;;;;;4331802;33;43800;-84
2021/08/17 02:31:56;;;;;;;;;;;15.50;91.50;;;;;;4345191;33;43471;-83
2021/08/17 02:34:26;;;;;;;;;;;15.50;91.50;;;;;;4347311;33;46293;-81
2021/08/17 02:36:58;;;;;;;;;;;15.50;91.50;;;;;;4334296;33;44022;-85
2021/08/17 02:39:28;;;;;;;;;;;15.50;91.50;;;;;;4347963;33;43238;-85
2021/08/17 02:41:58;;;;;;;;;;;15.50;91.50;;;;;;4334856;33;44951;-85
2021/08/17 02:44:33;;;;;;;;;;;15.50;91.50;;;;;;4334602;33;45170;-83
2021/08/17 02:47:09;;;;;;;;;;;15.50;91.50;;;;;;4335713;33;20099;-84
2021/08/17 02:49:37;;;;;;;;;;;15.50;91.60;;;;;;4347804;33;44306;-84
2021/08/17 02:52:04;;;;;;;;;;;15.40;91.50;;;;;;4347617;33;45775;-82
2021/08/17 02:54:41;;;;;;;;;;;15.50;91.60;;;;;;4347383;33;44262;-83
2021/08/17 02:57:09;;;;;;;;;;;15.40;91.50;;;;;;4334045;33;42513;-83
2021/08/17 02:59:39;;;;;;;;;;;15.40;91.60;;;;;;4347599;33;46169;-86
2021/08/17 03:02:11;;;;;;;;;;;15.40;91.60;;;;;;4334045;33;41592;-83
2021/08/17 03:04:44;;;;;;;;;;;15.40;91.60;;;;;;4347543;33;43900;-85
2021/08/17 03:07:14;;;;;;;;;;;15.40;91.60;;;;;;4334244;33;45838;-84
2021/08/17 03:09:43;;;;;;;;;;;15.30;91.70;;;;;;4333787;33;44576;-83
2021/08/17 03:12:10;;;;;;;;;;;15.30;91.70;;;;;;4334018;33;42988;-85
2021/08/17 03:14:46;;;;;;;;;;;15.40;91.80;;;;;;4334098;33;44698;-85
2021/08/17 03:17:13;;;;;;;;;;;15.30;91.80;;;;;;4348157;33;20009;-84
2021/08/17 03:19:46;;;;;;;;;;;15.40;91.80;;;;;;4346798;33;45124;-86
2021/08/17 03:22:13;;;;;;;;;;;15.30;91.80;;;;;;4334258;33;43995;-86
2021/08/17 03:24:46;;;;;;;;;;;15.30;91.70;;;;;;4347173;33;44003;-84
2021/08/17 03:27:13;;;;;;;;;;;15.30;91.70;;;;;;4346776;33;44105;-87
2021/08/17 03:29:45;;;;;;;;;;;15.30;91.70;;;;;;4333869;33;43466;-84
2021/08/17 03:32:24;;;;;;;;;;;15.30;91.70;;;;;;4333986;33;44695;-85
2021/08/17 03:35:02;;;;;;;;;;;15.30;91.70;;;;;;4346981;33;43968;-87
2021/08/17 03:37:29;;;;;;;;;;;15.30;91.70;;;;;;4333922;33;45977;-84
2021/08/17 03:39:57;;;;;;;;;;;15.30;91.70;;;;;;4333627;33;44610;-84
2021/08/17 03:42:35;;;;;;;;;;;15.30;91.70;;;;;;4333871;33;44805;-84
2021/08/17 03:45:08;;;;;;;;;;;15.30;91.70;;;;;;4333132;33;45662;-84
2021/08/17 03:47:35;;;;;;;;;;;15.40;91.70;;;;;;4334526;33;19997;-84
2021/08/17 03:50:11;;;;;;;;;;;15.40;91.70;;;;;;4346866;33;45713;-84
2021/08/17 03:52:38;;;;;;;;;;;15.40;91.70;;;;;;4333131;33;43455;-85
2021/08/17 03:55:06;;;;;;;;;;;15.40;91.70;;;;;;4332983;33;45741;-84
2021/08/17 03:57:41;;;;;;;;;;;15.40;91.70;;;;;;4346883;33;42629;-86
2021/08/17 04:00:13;;;;;;;;;;;15.40;91.70;;;;;;4333590;33;45211;-84
2021/08/17 04:02:48;;;;;;;;;;;15.40;91.70;;;;;;4333367;33;45070;-84
2021/08/17 04:05:21;;;;;;;;;;;15.40;91.70;;;;;;4346671;33;44170;-84
2021/08/17 04:07:52;;;;;;;;;;;15.40;91.70;;;;;;4333613;33;45174;-87
2021/08/17 04:10:22;;;;;;;;;;;15.40;91.70;;;;;;4333113;33;43896;-85
2021/08/17 04:12:50;;;;;;;;;;;15.30;91.70;;;;;;4346687;33;45272;-87
2021/08/17 04:15:19;;;;;;;;;;;15.30;91.70;;;;;;4333422;33;43989;-85
2021/08/17 04:17:52;;;;;;;;;;;15.30;91.70;;;;;;4334392;33;20032;-83
2021/08/17 04:20:25;;;;;;;;;;;15.30;91.70;;;;;;4333406;33;44807;-84
2021/08/17 04:22:58;;;;;;;;;;;15.30;91.70;;;;;;4333282;33;44821;-84
2021/08/17 04:25:26;;;;;;;;;;;15.30;91.70;;;;;;4346566;33;44052;-84
2021/08/17 04:27:58;;;;;;;;;;;15.30;91.70;;;;;;4333008;33;44071;-84
2021/08/17 04:30:39;;;;;;;;;;;15.30;91.70;;;;;;4346374;33;43569;-84
2021/08/17 04:33:06;;;;;;;;;;;15.20;91.70;;;;;;4332630;33;44282;-85
2021/08/17 04:35:39;;;;;;;;;;;15.20;91.70;;;;;;4332753;33;44799;-85
2021/08/17 04:38:06;;;;;;;;;;;15.20;91.70;;;;;;4332697;33;44219;-82
2021/08/17 04:40:33;;;;;;;;;;;15.20;91.80;;;;;;4346238;33;43181;-84
2021/08/17 04:43:11;;;;;;;;;;;15.20;91.80;;;;;;4346168;33;44349;-87
2021/08/17 04:45:49;;;;;;;;;;;15.20;91.80;;;;;;4332628;33;44215;-85
2021/08/17 04:48:25;;;;;;;;;;;15.20;91.90;;;;;;4333267;33;19993;-80
2021/08/17 04:50:56;;;;;;;;;;;15.10;91.90;;;;;;4332993;33;44181;-85
2021/08/17 04:53:23;;;;;;;;;;;15.10;91.90;;;;;;4332274;33;44112;-83
2021/08/17 04:55:53;;;;;;;;;;;15.10;91.90;;;;;;4332149;33;44343;-85
2021/08/17 04:58:20;;;;;;;;;;;15.10;91.90;;;;;;4345445;33;45467;-87
2021/08/17 05:00:48;;;;;;;;;;;15.10;91.90;;;;;;4332489;33;44364;-86
2021/08/17 05:03:20;;;;;;;;;;;15.10;91.90;;;;;;4345676;33;43773;-86
2021/08/17 05:05:56;;;;;;;;;;;15.10;91.90;;;;;;4332493;33;43698;-84
2021/08/17 05:08:23;;;;;;;;;;;15.10;92.00;;;;;;4332106;33;43912;-83
2021/08/17 05:10:53;;;;;;;;;;;15.10;92.00;;;;;;4345327;33;44276;-84
2021/08/17 05:13:20;;;;;;;;;;;15.10;92.00;;;;;;4345322;33;43259;-83
2021/08/17 05:15:48;;;;;;;;;;;15.00;92.00;;;;;;4332413;33;46015;-84
2021/08/17 05:18:20;;;;;;;;;;;15.00;92.00;;;;;;4333638;33;20013;-84
2021/08/17 05:20:51;;;;;;;;;;;15.10;92.10;;;;;;4345936;33;43597;-85
2021/08/17 05:23:18;;;;;;;;;;;15.00;92.10;;;;;;4345248;33;44517;-84
2021/08/17 05:25:48;;;;;;;;;;;15.00;92.10;;;;;;4345221;33;43297;-86
2021/08/17 05:28:18;;;;;;;;;;;15.00;92.10;;;;;;4345107;33;43033;-87
2021/08/17 05:30:47;;;;;;;;;;;15.10;92.10;;;;;;4332029;33;44239;-85
2021/08/17 05:33:17;;;;;;;;;;;15.10;92.10;;;;;;4345476;33;42890;-84
2021/08/17 05:35:50;;;;;;;;;;;15.00;92.10;;;;;;4345423;33;44434;-87
2021/08/17 05:38:20;;;;;;;;;;;15.00;92.20;;;;;;4345045;33;44597;-87
2021/08/17 05:40:51;;;;;;;;;;;15.00;92.20;;;;;;4345487;33;46099;-86
2021/08/17 05:43:18;;;;;;;;;;;15.00;92.20;;;;;;4332301;33;45309;-87
2021/08/17 05:46:06;;;;;;;;;;;15.00;92.30;;;;;;4334348;33;44382;-87
2021/08/17 05:48:52;;;;;;;;;;;15.00;92.30;;;;;;4344994;33;44042;-85
2021/08/17 05:51:27;;;;;;;;;;;14.90;92.30;;;;;;4345298;33;44185;-86
2021/08/17 05:54:00;;;;;;;;;;;14.90;92.40;;;;;;4345274;33;44629;-85
2021/08/17 05:56:30;;;;;;;;;;;15.00;92.40;;;;;;4331975;33;43358;-85
2021/08/17 05:59:00;;;;;;;;;;;15.00;92.40;;;;;;4331612;33;44381;-85
2021/08/17 06:01:27;;;;;;;;;;;15.00;92.40;;;;;;4345085;33;45192;-85
2021/08/17 06:03:58;;;;;;;;;;;15.00;92.40;;;;;;4332489;33;43400;-81
2021/08/17 06:06:31;;;;;;;;;;;15.00;92.40;;;;;;4332116;33;43427;-86
2021/08/17 06:08:58;;;;;;;;;;;15.00;92.50;;;;;;4347443;33;43321;-85
2021/08/17 06:11:37;;;;;;;;;;;15.00;92.50;;;;;;4348225;33;44109;-84
2021/08/17 06:14:13;;;;;;;;;;;15.00;92.50;;;;;;4348191;33;42701;-86
2021/08/17 06:16:43;;;;;;;;;;;15.00;92.60;;;;;;4334442;33;45833;-85
2021/08/17 06:19:16;;;;;;;;;;;15.00;92.60;;;;;;4349254;33;20441;-82
2021/08/17 06:21:44;;;;;;;;;;;15.00;92.60;;;;;;4347852;33;42527;-83
2021/08/17 06:24:14;;;;;;;;;;;15.00;92.60;;;;;;4335150;33;44729;-85
2021/08/17 06:26:53;;;;;;;;;;;15.00;92.70;;;;;;4334812;33;44759;-85
2021/08/17 06:29:20;;;;;;;;;;;15.00;92.70;;;;;;4334317;33;43225;-83
2021/08/17 06:31:56;;;;;;;;;;;15.00;92.70;;;;;;4334753;33;43932;-85
2021/08/17 06:34:31;;;;;;;;;;;15.00;92.80;;;;;;4334649;33;43014;-84
2021/08/17 06:37:01;;;;;;;;;;;15.10;92.80;;;;;;4334823;33;43131;-81
2021/08/17 06:39:35;;;;;;;;;;;15.00;92.80;;;;;;4334648;33;43717;-86
2021/08/17 06:42:11;;;;;;;;;;;15.00;92.90;;;;;;4334540;33;43493;-82
2021/08/17 06:44:41;;;;;;;;;;;15.00;92.90;;;;;;4334341;33;42760;-85
2021/08/17 06:47:08;;;;;;;;;;;15.00;92.90;;;;;;4347971;33;44077;-86
2021/08/17 06:49:35;;;;;;;;;;;15.00;92.90;;;;;;4335361;33;20514;-87
2021/08/17 06:52:02;;;;;;;;;;;15.00;92.90;;;;;;4333975;33;43259;-81
2021/08/17 06:54:32;;;;;;;;;;;15.00;92.90;;;;;;4334464;33;43128;-84
2021/08/17 06:56:59;;;;;;;;;;;15.00;92.90;;;;;;4347602;33;44890;-85
2021/08/17 06:59:32;;;;;;;;;;;15.00;92.90;;;;;;4347337;33;44097;-85
2021/08/17 07:02:05;;;;;;;;;;;15.00;92.90;;;;;;4331672;33;43120;-86
2021/08/17 07:04:38;;;;;;;;;;;15.00;93.00;;;;;;4331833;33;43652;-86
2021/08/17 07:07:05;;;;;;;;;;;15.00;93.00;;;;;;4332781;33;44204;-85
2021/08/17 07:09:35;;;;;;;;;;;15.10;93.00;;;;;;4331478;33;43544;-87
2021/08/17 07:12:03;;;;;;;;;;;15.10;93.00;;;;;;4332480;33;43473;-81
2021/08/17 07:14:30;;;;;;;;;;;15.10;93.10;;;;;;4331243;33;43923;-84
2021/08/17 07:16:57;;;;;;;;;;;15.00;93.10;;;;;;4332245;33;42965;-84
2021/08/17 07:19:24;;;;;;;;;;;15.00;93.10;;;;;;4332526;33;44813;-84
2021/08/17 07:21:57;;;;;;;;;;;15.00;93.20;;;;;;4332770;33;20411;-85
2021/08/17 07:24:24;;;;;;;;;;;15.00;93.20;;;;;;4332145;33;42894;-81
2021/08/17 07:26:51;;;;;;;;;;;15.00;93.20;;;;;;4332562;33;43911;-82
2021/08/17 07:29:21;;;;;;;;;;;15.00;93.20;;;;;;4331442;33;44206;-81
2021/08/17 07:31:49;;;;;;;;;;;15.00;93.30;;;;;;4331488;33;43862;-84
2021/08/17 07:34:16;;;;;;;;;;;15.00;93.30;;;;;;4330860;33;43525;-81
2021/08/17 07:36:46;;;;;;;;;;;15.00;93.30;;;;;;4330804;33;43477;-84
2021/08/17 07:39:14;;;;;;;;;;;15.00;93.30;;;;;;4332357;33;43943;-84
2021/08/17 07:41:41;;;;;;;;;;;15.00;93.30;;;;;;4330816;33;44788;-82
2021/08/17 07:44:11;;;;;;;;;;;15.00;93.30;;;;;;4330787;33;43987;-86
2021/08/17 07:46:41;;;;;;;;;;;15.00;93.30;;;;;;4331343;33;42142;-79
2021/08/17 07:49:11;;;;;;;;;;;15.10;93.40;;;;;;4332347;33;43863;-84
2021/08/17 07:51:44;;;;;;;;;;;15.10;93.40;;;;;;4330796;33;42325;-83
2021/08/17 07:54:20;;;;;;;;;;;15.10;93.40;;;;;;4331172;33;42575;-85
2021/08/17 07:56:47;;;;;;;;;;;15.10;93.40;;;;;;4330714;33;42854;-81
2021/08/17 07:59:17;;;;;;;;;;;15.10;93.40;;;;;;4330630;33;43051;-85
2021/08/17 08:01:47;;;;;;;;;;;15.10;93.40;;;;;;4330423;33;43188;-80
2021/08/17 08:04:14;;;;;;;;;;;15.20;93.50;;;;;;4331666;33;43031;-84
2021/08/17 08:06:44;;;;;;;;;;;15.20;93.50;;;;;;4330689;33;43513;-83
2021/08/17 08:09:17;;;;;;;;;;;15.20;93.50;;;;;;4331079;33;43251;-84
2021/08/17 08:11:50;;;;;;;;;;;15.30;93.50;;;;;;4330820;33;44735;-85
2021/08/17 08:14:20;;;;;;;;;;;15.20;93.40;;;;;;4331256;33;45187;-84
2021/08/17 08:16:56;;;;;;;;;;;15.20;93.40;;;;;;4331624;33;44156;-85
2021/08/17 08:19:24;;;;;;;;;;;15.30;93.50;;;;;;4331062;33;42778;-85
2021/08/17 08:21:57;;;;;;;;;;;15.30;93.50;;;;;;4330315;33;43088;-84
2021/08/17 08:24:27;;;;;;;;;;;15.30;93.50;;;;;;4330093;33;43930;-83
2021/08/17 08:27:00;;;;;;;;;;;15.30;93.50;;;;;;4331489;33;43026;-83
2021/08/17 08:29:27;;;;;;;;;;;15.40;93.50;;;;;;4331873;33;45035;-82
2021/08/17 08:31:57;;;;;;;;;;;15.40;93.50;;;;;;4331224;33;44126;-83
2021/08/17 08:34:24;;;;;;;;;;;15.40;93.50;;;;;;4331505;33;43496;-81
2021/08/17 08:36:51;;;;;;;;;;;15.40;93.50;;;;;;4330412;33;44021;-82
2021/08/17 08:39:25;;;;;;;;;;;15.40;93.50;;;;;;4331024;33;44405;-81
2021/08/17 08:42:00;;;;;;;;;;;15.50;93.60;;;;;;4330636;33;43263;-85
2021/08/17 08:44:30;;;;;;;;;;;15.50;93.60;;;;;;4330400;33;43951;-81
2021/08/17 08:47:03;;;;;;;;;;;15.50;93.50;;;;;;4330925;33;44130;-80
2021/08/17 08:49:33;;;;;;;;;;;15.50;93.50;;;;;;4330971;33;42227;-80
2021/08/17 08:52:06;;;;;;;;;;;15.50;93.50;;;;;;4331128;33;43707;-84
2021/08/17 08:54:33;;;;;;;;;;;15.50;93.50;;;;;;4331576;33;44224;-83
2021/08/17 08:57:03;;;;;;;;;;;15.50;93.50;;;;;;4329789;33;43039;-83
2021/08/17 08:59:31;;;;;;;;;;;15.60;93.50;;;;;;4330875;33;42588;-83
2021/08/17 09:02:07;;;;;;;;;;;15.60;93.50;;;;;;4335880;33;43888;-83
2021/08/17 09:04:34;;;;;;;;;;;15.60;93.50;;;;;;4332514;33;42109;-81
2021/08/17 09:07:02;;;;;;;;;;;15.60;93.50;;;;;;4345574;33;42783;-83
2021/08/17 09:09:29;;;;;;;;;;;15.60;93.50;;;;;;4345580;33;42742;-86
2021/08/17 09:11:58;;;;;;;;;;;15.60;93.50;;;;;;4332050;33;43231;-83
2021/08/17 09:14:36;;;;;;;;;;;15.70;93.50;;;;;;4332358;33;43341;-82
2021/08/17 09:17:09;;;;;;;;;;;15.70;93.50;;;;;;4332498;33;43362;-82
2021/08/17 09:19:57;;;;;;;;;;;15.70;93.50;;;;;;4345534;33;43308;-85
2021/08/17 09:22:27;;;;;;;;;;;15.70;93.40;;;;;;4345721;33;43746;-84
2021/08/17 09:25:02;;;;;;;;;;;15.70;93.40;;;;;;4333075;33;20040;-83
2021/08/17 09:27:33;;;;;;;;;;;15.70;93.40;;;;;;4332530;33;44239;-84
2021/08/17 09:30:03;;;;;;;;;;;15.70;93.40;;;;;;4345425;33;44102;-84
2021/08/17 09:32:30;;;;;;;;;;;15.80;93.40;;;;;;4345074;33;43785;-82
2021/08/17 09:35:02;;;;;;;;;;;15.70;93.40;;;;;;4345050;33;44183;-83
2021/08/17 09:37:33;;;;;;;;;;;15.70;93.40;;;;;;4332448;33;44949;-85
2021/08/17 09:40:04;;;;;;;;;;;15.80;93.40;;;;;;4332137;33;42704;-85
2021/08/17 09:42:32;;;;;;;;;;;15.80;93.40;;;;;;4344861;33;43869;-81
2021/08/17 09:45:18;;;;;;;;;;;15.80;93.30;;;;;;4345451;33;43941;-84
2021/08/17 09:47:48;;;;;;;;;;;15.80;93.30;;;;;;4332211;33;43683;-83
2021/08/17 09:50:29;;;;;;;;;;;15.80;93.30;;;;;;4345277;33;43371;-84
2021/08/17 09:53:09;;;;;;;;;;;15.80;93.30;;;;;;4332160;33;42897;-83
2021/08/17 09:55:52;;;;;;;;;;;15.80;93.30;;;;;;4346595;33;20031;-81
2021/08/17 09:58:19;;;;;;;;;;;15.80;93.20;;;;;;4345373;33;43335;-87
2021/08/17 10:00:50;;;;;;;;;;;15.80;93.20;;;;;;4344771;33;43553;-85
2021/08/17 10:03:18;;;;;;;;;;;15.80;93.20;;;;;;4331761;33;42511;-85
2021/08/17 10:05:46;;;;;;;;;;;15.90;93.20;;;;;;4331803;33;43787;-81
2021/08/17 10:08:13;;;;;;;;;;;15.90;93.20;;;;;;4345230;33;43251;-84
2021/08/17 10:10:40;;;;;;;;;;;15.80;93.20;;;;;;4344978;33;43322;-85
2021/08/17 10:13:11;;;;;;;;;;;15.90;93.20;;;;;;4331925;33;43492;-84
2021/08/17 10:15:44;;;;;;;;;;;15.90;93.20;;;;;;4331523;33;43830;-87
2021/08/17 10:18:17;;;;;;;;;;;15.90;93.20;;;;;;4344980;33;44162;-85
2021/08/17 10:20:48;;;;;;;;;;;15.90;93.20;;;;;;4345365;33;43678;-86
2021/08/17 10:23:19;;;;;;;;;;;15.90;93.20;;;;;;4331911;33;44105;-85
2021/08/17 10:25:50;;;;;;;;;;;15.90;93.20;;;;;;4333131;33;20040;-82
2021/08/17 10:28:53;;;;;;;;;;;15.90;93.10;;;;;;4331448;33;42408;-85
2021/08/17 10:31:27;;;;;;;;;;;15.90;93.20;;;;;;4284646;33;44161;-83
2021/08/17 10:34:00;;;;;;;;;;;15.90;93.10;;;;;;4335952;33;43482;-82
2021/08/17 10:36:30;;;;;;;;;;;15.90;93.10;;;;;;4331989;33;43875;-82
2021/08/17 10:39:17;;;;;;;;;;;15.90;93.10;;;;;;4331541;33;43192;-82
2021/08/17 10:41:47;;;;;;;;;;;15.90;93.10;;;;;;4330937;33;43566;-82
2021/08/17 10:44:20;;;;;;;;;;;15.90;93.10;;;;;;4331373;33;44246;-85
2021/08/17 10:47:12;;;;;;;;;;;15.90;93.10;;;;;;4344586;33;42635;-81
2021/08/17 10:49:52;;;;;;;;;;;16.00;93.10;;;;;;4344923;33;43383;-85
2021/08/17 10:52:29;;;;;;;;;;;15.90;93.10;;;;;;4331344;33;42526;-81
2021/08/17 10:55:15;;;;;;;;;;;16.00;93.10;;;;;;4333143;33;44292;-84
2021/08/17 10:57:53;;;;;;;;;;;15.90;93.10;;;;;;4348868;33;20010;-83
2021/08/17 11:00:39;;;;;;;;;;;15.90;93.00;;;;;;4333953;33;43313;-82
2021/08/17 11:03:06;;;;;;;;;;;15.90;93.10;;;;;;4333771;33;44133;-82
2021/08/17 11:05:50;;;;;;;;;;;15.90;93.00;;;;;;4347539;33;42866;-83
2021/08/17 11:08:34;;;;;;;;;;;15.90;93.10;;;;;;4334494;33;43823;-82
2021/08/17 11:11:05;;;;;;;;;;;16.00;93.00;;;;;;4333766;33;42989;-82
2021/08/17 11:13:35;;;;;;;;;;;16.00;93.00;;;;;;4334366;33;43873;-83
2021/08/17 11:16:09;;;;;;;;;;;16.00;93.00;;;;;;4347444;33;44192;-82
2021/08/17 11:18:48;;;;;;;;;;;16.00;93.00;;;;;;4334025;33;42637;-84
2021/08/17 11:21:48;;;;;;;;;;;16.00;93.00;;;;;;4334119;33;44030;-81
2021/08/17 11:24:31;;;;;;;;;;;16.00;93.00;;;;;;4301663;33;44188;-82
2021/08/17 11:27:01;;;;;;;;;;;16.00;93.00;;;;;;4347077;33;43956;-84
2021/08/17 11:29:47;;;;;;;;;;;16.00;93.00;;;;;;4346902;33;43086;-85
2021/08/17 11:32:24;;;;;;;;;;;16.00;93.00;;;;;;4347303;33;44617;-81
2021/08/17 11:34:51;;;;;;;;;;;16.00;93.00;;;;;;4333662;33;44079;-87
2021/08/17 11:37:19;;;;;;;;;;;16.10;92.90;;;;;;4346748;33;43888;-84
2021/08/17 11:40:07;;;;;;;;;;;16.00;92.90;;;;;;4346746;33;43311;-82
2021/08/17 11:42:35;;;;;;;;;;;16.10;92.90;;;;;;4333817;33;42669;-84
2021/08/17 11:45:07;;;;;;;;;;;16.00;92.80;;;;;;4346877;33;45161;-85
2021/08/17 11:47:34;;;;;;;;;;;16.00;92.80;;;;;;4346547;33;43512;-86
2021/08/17 11:50:04;;;;;;;;;;;16.10;92.80;;;;;;4333468;33;42850;-83
2021/08/17 11:52:38;;;;;;;;;;;16.10;92.80;;;;;;4346774;33;43271;-86
2021/08/17 11:55:08;;;;;;;;;;;16.10;92.80;;;;;;4333677;33;42610;-82
2021/08/17 11:57:36;;;;;;;;;;;16.10;92.70;;;;;;4346809;33;42805;-83
2021/08/17 12:00:14;;;;;;;;;;;16.10;92.70;;;;;;4334200;33;20001;-86
2021/08/17 12:02:42;;;;;;;;;;;16.10;92.70;;;;;;4346611;33;45136;-87
2021/08/17 12:05:15;;;;;;;;;;;16.10;92.70;;;;;;4333087;33;42552;-84
2021/08/17 12:07:43;;;;;;;;;;;16.10;93.00;;;;;;4346370;33;42545;-84
2021/08/17 12:10:12;;;;;;;;;;;16.10;92.60;;;;;;4346216;33;44175;-83
2021/08/17 12:12:51;;;;;;;;;;;16.20;92.60;;;;;;4346234;33;42882;-86
2021/08/17 12:15:18;;;;;;;;;;;16.10;92.60;;;;;;4333299;33;42800;-88
2021/08/17 12:17:56;;;;;;;;;;;16.10;92.60;;;;;;4346497;33;44243;-87
2021/08/17 12:20:23;;;;;;;;;;;16.10;92.60;;;;;;4346587;33;43008;-88
2021/08/17 12:22:50;;;;;;;;;;;16.10;92.60;;;;;;4333250;33;43925;-87
2021/08/17 12:25:28;;;;;;;;;;;16.20;93.00;;;;;;4346184;33;44087;-86
2021/08/17 12:27:57;;;;;;;;;;;16.10;92.60;;;;;;4346392;33;43570;-87
2021/08/17 12:30:28;;;;;;;;;;;16.10;92.60;;;;;;4347168;33;20001;-85
2021/08/17 12:32:55;;;;;;;;;;;16.10;92.70;;;;;;4333168;33;44085;-87
2021/08/17 12:35:27;;;;;;;;;;;16.10;92.70;;;;;;4332576;33;43020;-86
2021/08/17 12:38:12;;;;;;;;;;;16.10;92.70;;;;;;4332861;33;44212;-85
2021/08/17 12:40:55;;;;;;;;;;;16.10;92.60;;;;;;4333021;33;45273;-86
2021/08/17 12:43:28;;;;;;;;;;;16.10;92.70;;;;;;4332991;33;45563;-85
2021/08/17 12:46:07;;;;;;;;;;;16.10;92.70;;;;;;4346061;33;45856;-84
2021/08/17 12:48:45;;;;;;;;;;;16.10;92.70;;;;;;4333134;33;43482;-84
2021/08/17 12:51:24;;;;;;;;;;;16.10;92.70;;;;;;4332669;33;45760;-83
2021/08/17 12:54:03;;;;;;;;;;;16.10;92.80;;;;;;4332875;33;44784;-85
2021/08/17 12:56:35;;;;;;;;;;;16.10;92.80;;;;;;4332634;33;42850;-85
2021/08/17 12:59:14;;;;;;;;;;;16.00;92.80;;;;;;4332258;33;44707;-85
2021/08/17 13:01:41;;;;;;;;;;;16.10;92.80;;;;;;4330033;33;44087;-85
2021/08/17 13:04:16;;;;;;;;;;;16.00;92.80;;;;;;4331252;33;43729;-85
2021/08/17 13:06:57;;;;;;;;;;;16.00;92.80;;;;;;4330285;33;45826;-83
2021/08/17 13:09:32;;;;;;;;;;;16.10;92.80;;;;;;4330087;33;44535;-83
2021/08/17 13:12:14;;;;;;;;;;;16.00;92.80;;;;;;4330093;33;44224;-84
2021/08/17 13:14:52;;;;;;;;;;;16.00;92.80;;;;;;4329980;33;43486;-85
2021/08/17 13:17:28;;;;;;;;;;;16.10;92.80;;;;;;4329776;33;44916;-83
2021/08/17 13:20:04;;;;;;;;;;;16.00;92.80;;;;;;4329990;33;43795;-84
2021/08/17 13:22:42;;;;;;;;;;;16.10;92.80;;;;;;4331249;33;43507;-84
2021/08/17 13:25:17;;;;;;;;;;;16.10;92.80;;;;;;4329817;33;45994;-84
2021/08/17 13:27:53;;;;;;;;;;;16.10;92.90;;;;;;4329790;33;44761;-83
2021/08/17 13:30:20;;;;;;;;;;;16.00;92.90;;;;;;4330016;33;45305;-84
2021/08/17 13:32:56;;;;;;;;;;;16.00;92.90;;;;;;4329511;33;45997;-83
2021/08/17 13:35:34;;;;;;;;;;;16.10;92.90;;;;;;4330853;33;43939;-83
2021/08/17 13:38:10;;;;;;;;;;;16.10;92.90;;;;;;4330679;33;45141;-82
2021/08/17 13:40:49;;;;;;;;;;;16.10;92.90;;;;;;4329825;33;43145;-82
2021/08/17 13:43:24;;;;;;;;;;;16.10;92.90;;;;;;4329601;33;45833;-83
2021/08/17 13:46:03;;;;;;;;;;;16.10;92.90;;;;;;4330742;33;44643;-83
2021/08/17 13:48:44;;;;;;;;;;;16.00;92.90;;;;;;4329464;33;45411;-82
2021/08/17 13:51:23;;;;;;;;;;;16.00;93.00;;;;;;4329705;33;44563;-83
2021/08/17 13:53:58;;;;;;;;;;;16.00;93.00;;;;;;4329485;33;44902;-83
2021/08/17 13:56:36;;;;;;;;;;;16.00;93.00;;;;;;4329474;33;42864;-83
2021/08/17 13:59:03;;;;;;;;;;;16.00;93.00;;;;;;4329659;33;44773;-84
2021/08/17 14:01:36;;;;;;;;;;;16.00;93.00;;;;;;4330979;33;44689;-83
2021/08/17 14:04:15;;;;;;;;;;;16.00;93.00;;;;;;4345236;33;44818;-81
2021/08/17 14:06:50;;;;;;;;;;;16.00;93.00;;;;;;4331959;33;45721;-82
2021/08/17 14:09:30;;;;;;;;;;;16.00;93.00;;;;;;4332261;33;43455;-83
2021/08/17 14:12:06;;;;;;;;;;;16.00;93.40;;;;;;4332078;33;46090;-82
2021/08/17 14:14:41;;;;;;;;;;;16.10;93.10;;;;;;4331944;33;46281;-82
2021/08/17 14:17:17;;;;;;;;;;;16.10;93.10;;;;;;4345095;33;44450;-83
2021/08/17 14:19:52;;;;;;;;;;;16.00;93.10;;;;;;4331981;33;44483;-82
2021/08/17 14:22:30;;;;;;;;;;;16.00;93.10;;;;;;4331856;33;44635;-83
2021/08/17 14:24:57;;;;;;;;;;;16.00;93.10;;;;;;4332235;33;44224;-82
2021/08/17 14:27:35;;;;;;;;;;;16.00;93.10;;;;;;4331868;33;43994;-83
2021/08/17 14:30:11;;;;;;;;;;;16.10;93.20;;;;;;4333532;33;44117;-83
2021/08/17 14:32:46;;;;;;;;;;;16.00;93.20;;;;;;4334163;33;45823;-83
2021/08/17 14:35:20;;;;;;;;;;;16.10;93.30;;;;;;4336050;33;20013;-82
2021/08/17 14:37:56;;;;;;;;;;;16.00;93.20;;;;;;4334738;33;44685;-84
2021/08/17 14:40:32;;;;;;;;;;;16.00;93.20;;;;;;4334280;33;44053;-83
2021/08/17 14:43:11;;;;;;;;;;;16.10;93.30;;;;;;4334777;33;45330;-82
2021/08/17 14:45:50;;;;;;;;;;;16.00;93.20;;;;;;4334518;33;45512;-82
2021/08/17 14:48:26;;;;;;;;;;;16.00;93.30;;;;;;4334749;33;45758;-84